Time;durP1;ratioP1;P1;durP2;ratioP2;P2;SDS_P1;SDS_P2;PMS_P1;PMS_P2;Temp;Humidity;BMP_temperature;BMP_pressure;BME280_temperature;BME280_humidity;BME280_pressure;Samples;Min_cycle;Max_cycle;Signal;HPM_P1;HPM_P2
2022/02/18 00:00:45;;;;;;;26.70;4.75;;;9.30;99.90;;;;;;1927263;74;21038;-78
2022/02/18 00:03:14;;;;;;;22.67;4.70;;;9.20;99.90;;;;;;1926030;74;21104;-77
2022/02/18 00:05:43;;;;;;;17.55;3.80;;;9.30;99.90;;;;;;1927405;74;21171;-77
2022/02/18 00:08:10;;;;;;;25.92;4.90;;;9.20;99.90;;;;;;1927330;74;21054;-78
2022/02/18 00:10:37;;;;;;;22.77;4.65;;;9.20;99.90;;;;;;1927379;74;21107;-78
2022/02/18 00:13:04;;;;;;;20.12;4.00;;;9.20;99.90;;;;;;1927462;74;21536;-77
2022/02/18 00:15:32;;;;;;;25.27;5.05;;;9.20;99.90;;;;;;1927373;74;21070;-77
2022/02/18 00:18:01;;;;;;;22.75;4.28;;;9.10;99.90;;;;;;1927368;74;21176;-77
2022/02/18 00:20:29;;;;;;;19.90;4.37;;;9.10;99.90;;;;;;1927306;74;21247;-78
2022/02/18 00:22:56;;;;;;;20.92;4.42;;;9.10;99.90;;;;;;1927430;74;21135;-78
2022/02/18 00:25:23;;;;;;;19.60;4.00;;;9.10;99.90;;;;;;1927363;74;21019;-77
2022/02/18 00:27:51;;;;;;;15.93;4.33;;;9.10;99.90;;;;;;1927473;74;21018;-77
2022/02/18 00:30:19;;;;;;;22.75;4.53;;;9.10;99.90;;;;;;1927387;74;21119;-77
2022/02/18 00:32:47;;;;;;;29.98;4.58;;;9.10;99.90;;;;;;1927382;74;21136;-78
2022/02/18 00:35:19;;;;;;;19.45;4.58;;;9.10;99.90;;;;;;1927468;74;21058;-78
2022/02/18 00:37:44;;;;;;;18.15;4.53;;;9.00;99.90;;;;;;1927929;73;21491;-78
2022/02/18 00:40:11;;;;;;;16.00;4.10;;;9.00;99.90;;;;;;1927424;74;21030;-78
2022/02/18 00:42:39;;;;;;;23.52;4.40;;;9.10;99.90;;;;;;1927522;74;21107;-78
2022/02/18 00:45:07;;;;;;;18.17;3.92;;;9.20;99.90;;;;;;1927378;74;21050;-77
2022/02/18 00:47:34;;;;;;;22.45;3.92;;;9.10;99.90;;;;;;1927465;74;21124;-78
2022/02/18 00:50:01;;;;;;;23.90;3.95;;;9.10;99.90;;;;;;1927496;74;21045;-78
2022/02/18 00:52:29;;;;;;;27.52;4.42;;;9.10;99.90;;;;;;1927472;74;21473;-78
2022/02/18 00:54:56;;;;;;;19.07;4.25;;;9.10;99.90;;;;;;1927671;74;21131;-78
2022/02/18 00:57:23;;;;;;;19.95;4.30;;;9.10;99.90;;;;;;1927600;74;21544;-78
2022/02/18 00:59:50;;;;;;;27.48;4.28;;;9.20;99.90;;;;;;1927817;74;21015;-78
2022/02/18 01:02:18;;;;;;;17.80;4.03;;;9.20;99.90;;;;;;1927601;74;21038;-78
2022/02/18 01:04:45;;;;;;;20.05;3.58;;;9.20;99.90;;;;;;1927799;74;21085;-78
2022/02/18 01:07:12;;;;;;;16.82;3.92;;;9.20;99.90;;;;;;1927687;74;21171;-79
2022/02/18 01:09:40;;;;;;;27.98;4.10;;;9.20;99.90;;;;;;1927529;74;21050;-78
2022/02/18 01:12:07;;;;;;;14.18;3.75;;;9.20;99.90;;;;;;1927464;74;21046;-78
2022/02/18 01:14:35;;;;;;;23.47;3.87;;;9.30;99.90;;;;;;1927487;74;21430;-77
2022/02/18 01:17:02;;;;;;;16.25;3.67;;;9.20;99.90;;;;;;1927406;74;21148;-77
2022/02/18 01:19:29;;;;;;;27.07;3.75;;;9.20;99.90;;;;;;1927493;74;21011;-78
2022/02/18 01:21:57;;;;;;;25.57;4.47;;;9.20;99.90;;;;;;1927456;74;21045;-78
2022/02/18 01:24:24;;;;;;;19.55;4.15;;;9.10;99.90;;;;;;1927433;74;21193;-78
2022/02/18 01:26:51;;;;;;;20.72;4.22;;;9.10;99.90;;;;;;1927471;74;21140;-78
2022/02/18 01:29:18;;;;;;;22.52;4.30;;;9.10;99.90;;;;;;1927478;74;21424;-78
2022/02/18 01:31:46;;;;;;;21.97;4.37;;;9.10;99.90;;;;;;1927482;74;21093;-78
2022/02/18 01:34:13;;;;;;;16.07;3.55;;;9.10;99.90;;;;;;1927540;74;21109;-77
2022/02/18 01:36:41;;;;;;;15.88;3.83;;;9.10;99.90;;;;;;1927319;74;21019;-76
2022/02/18 01:39:10;;;;;;;17.15;4.08;;;9.10;99.90;;;;;;1927382;74;21011;-78
2022/02/18 01:41:37;;;;;;;21.82;4.78;;;9.10;99.90;;;;;;1927413;74;21047;-77
2022/02/18 01:44:05;;;;;;;18.40;3.35;;;9.10;99.90;;;;;;1927358;74;21367;-77
2022/02/18 01:46:33;;;;;;;20.85;3.87;;;9.10;99.90;;;;;;1927345;74;21054;-78
2022/02/18 01:49:00;;;;;;;18.30;4.03;;;9.00;99.90;;;;;;1927618;74;21477;-78
2022/02/18 01:51:28;;;;;;;19.20;4.33;;;9.00;99.90;;;;;;1927833;74;21049;-76
2022/02/18 01:53:55;;;;;;;17.85;4.28;;;9.00;99.90;;;;;;1927582;74;21046;-78
2022/02/18 01:56:23;;;;;;;16.12;3.95;;;8.90;99.90;;;;;;1927640;74;21082;-78
2022/02/18 01:58:51;;;;;;;15.65;3.65;;;9.00;99.90;;;;;;1927339;74;21014;-78
2022/02/18 02:01:18;;;;;;;18.17;4.28;;;8.90;99.90;;;;;;1927536;74;21495;-78
2022/02/18 02:03:45;;;;;;;19.50;4.00;;;9.00;99.90;;;;;;1927273;74;21081;-78
2022/02/18 02:06:14;;;;;;;18.95;4.30;;;8.90;99.90;;;;;;1920721;74;21066;-77
2022/02/18 02:08:41;;;;;;;20.72;3.60;;;8.90;99.90;;;;;;1927417;74;21119;-77
2022/02/18 02:11:08;;;;;;;14.23;4.03;;;8.80;99.90;;;;;;1927532;74;21104;-77
2022/02/18 02:13:38;;;;;;;18.00;3.75;;;8.90;99.90;;;;;;1927485;74;21502;-77
2022/02/18 02:16:06;;;;;;;25.43;3.70;;;8.80;99.90;;;;;;1927583;74;21155;-78
2022/02/18 02:18:34;;;;;;;19.23;3.77;;;8.80;99.90;;;;;;1927412;74;21132;-78
2022/02/18 02:21:01;;;;;;;30.15;4.45;;;8.80;99.90;;;;;;1927497;74;21011;-77
2022/02/18 02:23:28;;;;;;;20.97;4.12;;;8.80;99.90;;;;;;1927442;74;21081;-78
2022/02/18 02:25:56;;;;;;;18.90;3.98;;;8.80;99.90;;;;;;1927382;74;21081;-78
2022/02/18 02:28:24;;;;;;;16.57;3.55;;;8.70;99.90;;;;;;1927545;74;21058;-77
2022/02/18 02:30:51;;;;;;;19.95;3.75;;;8.60;99.90;;;;;;1927379;74;21045;-78
2022/02/18 02:33:18;;;;;;;12.93;3.55;;;8.60;99.90;;;;;;1927675;74;21046;-78
2022/02/18 02:35:45;;;;;;;14.68;3.83;;;8.70;99.90;;;;;;1927488;74;21176;-77
2022/02/18 02:38:13;;;;;;;13.25;3.50;;;8.70;99.90;;;;;;1928138;74;21038;-77
2022/02/18 02:40:40;;;;;;;16.05;3.75;;;8.60;99.90;;;;;;1927795;74;21111;-77
2022/02/18 02:43:07;;;;;;;13.55;3.52;;;8.60;99.90;;;;;;1927466;74;21131;-78
2022/02/18 02:45:35;;;;;;;24.98;3.90;;;8.60;99.90;;;;;;1927480;74;21011;-78
2022/02/18 02:48:02;;;;;;;17.23;3.92;;;8.60;99.90;;;;;;1927379;74;21177;-78
2022/02/18 02:50:29;;;;;;;20.75;3.60;;;8.50;99.90;;;;;;1927424;74;21045;-77
2022/02/18 02:52:57;;;;;;;19.52;3.27;;;8.40;99.90;;;;;;1927340;74;21065;-77
2022/02/18 02:55:24;;;;;;;16.02;3.45;;;8.40;99.90;;;;;;1927449;74;21396;-77
2022/02/18 02:57:51;;;;;;;19.20;3.60;;;8.30;99.90;;;;;;1927365;74;21015;-77
2022/02/18 03:00:19;;;;;;;23.57;3.70;;;8.40;99.90;;;;;;1927263;74;21108;-78
2022/02/18 03:02:46;;;;;;;17.73;3.35;;;8.50;99.90;;;;;;1927437;74;21477;-77
2022/02/18 03:05:16;;;;;;;12.55;3.10;;;8.40;99.90;;;;;;1927305;74;21015;-78
2022/02/18 03:07:43;;;;;;;14.00;2.75;;;8.40;99.90;;;;;;1927519;74;21057;-78
2022/02/18 03:10:10;;;;;;;14.90;2.98;;;8.30;99.90;;;;;;1927412;74;21112;-78
2022/02/18 03:12:38;;;;;;;17.52;3.65;;;8.30;99.90;;;;;;1927550;74;21485;-77
2022/02/18 03:15:06;;;;;;;14.13;3.35;;;8.20;99.90;;;;;;1927647;74;21218;-78
2022/02/18 03:17:33;;;;;;;16.25;3.35;;;8.30;99.90;;;;;;1927600;74;21190;-78
2022/02/18 03:20:00;;;;;;;15.05;3.25;;;8.30;99.90;;;;;;1927581;74;21116;-78
2022/02/18 03:22:27;;;;;;;14.20;3.10;;;8.30;99.90;;;;;;1927606;74;21103;-77
2022/02/18 03:24:55;;;;;;;12.95;3.00;;;8.30;99.90;;;;;;1927717;74;21437;-77
2022/02/18 03:27:22;;;;;;;13.95;3.58;;;8.20;99.90;;;;;;1927745;74;21119;-77
2022/02/18 03:29:50;;;;;;;14.05;3.40;;;8.20;99.90;;;;;;1927733;74;21394;-78
2022/02/18 03:32:17;;;;;;;19.05;2.92;;;8.30;99.90;;;;;;1927695;74;21589;-78
2022/02/18 03:34:44;;;;;;;12.65;3.40;;;8.30;99.90;;;;;;1927556;74;21050;-78
2022/02/18 03:37:12;;;;;;;20.20;3.40;;;8.30;99.90;;;;;;1927599;74;21046;-78
2022/02/18 03:39:39;;;;;;;11.55;2.92;;;8.40;99.90;;;;;;1928327;74;21108;-78
2022/02/18 03:42:06;;;;;;;19.67;3.92;;;8.30;99.90;;;;;;1928269;74;21155;-78
2022/02/18 03:44:35;;;;;;;21.97;3.20;;;8.10;99.90;;;;;;1927706;74;21007;-78
2022/02/18 03:47:03;;;;;;;9.85;2.83;;;8.20;99.90;;;;;;1927554;74;21062;-77
2022/02/18 03:49:30;;;;;;;16.32;3.50;;;8.20;99.90;;;;;;1927707;74;21127;-78
2022/02/18 03:51:58;;;;;;;19.75;3.65;;;8.10;99.90;;;;;;1924109;74;21161;-77
2022/02/18 03:54:26;;;;;;;15.43;3.70;;;8.10;99.90;;;;;;1927655;74;21038;-78
2022/02/18 03:56:56;;;;;;;17.62;3.17;;;8.10;99.90;;;;;;1927648;74;21070;-78
2022/02/18 03:59:24;;;;;;;16.77;3.70;;;8.00;99.90;;;;;;1927609;74;21112;-78
2022/02/18 04:01:51;;;;;;;16.35;3.75;;;8.00;99.90;;;;;;1927614;74;21049;-77
2022/02/18 04:04:18;;;;;;;14.40;3.22;;;7.90;99.90;;;;;;1927001;74;21391;-78
2022/02/18 04:06:46;;;;;;;11.18;2.92;;;7.80;99.90;;;;;;1927513;74;21167;-78
2022/02/18 04:09:13;;;;;;;21.23;2.77;;;7.70;99.90;;;;;;1927410;74;21039;-77
2022/02/18 04:11:40;;;;;;;12.33;3.00;;;7.70;99.90;;;;;;1927372;74;21140;-78
2022/02/18 04:14:07;;;;;;;14.55;3.45;;;7.90;99.90;;;;;;1927341;74;21049;-78
2022/02/18 04:16:35;;;;;;;9.53;2.80;;;7.80;99.90;;;;;;1927475;74;21062;-77
2022/02/18 04:19:02;;;;;;;15.03;3.05;;;7.70;99.90;;;;;;1927566;74;21047;-78
2022/02/18 04:21:29;;;;;;;15.20;3.40;;;7.70;99.90;;;;;;1927427;74;21042;-78
2022/02/18 04:23:57;;;;;;;10.80;2.60;;;7.70;99.90;;;;;;1927335;74;21054;-78
2022/02/18 04:26:24;;;;;;;12.90;3.30;;;7.70;99.90;;;;;;1927463;74;21050;-77
2022/02/18 04:28:51;;;;;;;16.27;3.30;;;7.70;99.90;;;;;;1927270;74;21431;-78
2022/02/18 04:31:19;;;;;;;13.05;3.27;;;7.60;99.90;;;;;;1927384;74;21046;-77
2022/02/18 04:33:46;;;;;;;18.80;3.62;;;7.60;99.90;;;;;;1927455;74;21592;-78
2022/02/18 04:36:13;;;;;;;18.20;3.45;;;7.70;99.90;;;;;;1927341;74;21042;-78
2022/02/18 04:38:41;;;;;;;23.27;2.87;;;7.80;99.90;;;;;;1927211;74;21035;-78
2022/02/18 04:41:08;;;;;;;16.80;3.42;;;7.80;99.90;;;;;;1927478;74;21046;-77
2022/02/18 04:43:36;;;;;;;15.08;3.58;;;7.90;99.90;;;;;;1927524;74;21112;-78
2022/02/18 04:46:04;;;;;;;19.48;3.25;;;8.00;99.90;;;;;;1927493;74;21045;-78
2022/02/18 04:48:31;;;;;;;11.00;2.83;;;8.10;99.90;;;;;;1927466;74;21050;-77
2022/02/18 04:50:58;;;;;;;19.17;3.60;;;8.20;99.90;;;;;;1927428;74;21069;-77
2022/02/18 04:53:26;;;;;;;11.53;3.55;;;8.30;99.90;;;;;;1927479;74;21045;-77
2022/02/18 04:55:53;;;;;;;15.68;3.30;;;8.30;99.90;;;;;;1927582;74;21480;-77
2022/02/18 04:58:21;;;;;;;14.00;3.22;;;8.30;99.90;;;;;;1927305;74;21150;-78
2022/02/18 05:00:48;;;;;;;12.95;3.10;;;8.20;99.90;;;;;;1927323;74;21039;-78
2022/02/18 05:03:15;;;;;;;32.35;3.85;;;8.20;99.90;;;;;;1927566;74;21107;-77
2022/02/18 05:05:43;;;;;;;13.00;3.33;;;8.30;99.90;;;;;;1927562;74;21107;-77
2022/02/18 05:08:10;;;;;;;14.05;2.90;;;8.20;99.90;;;;;;1927508;74;21115;-78
2022/02/18 05:10:37;;;;;;;13.38;3.35;;;8.30;99.90;;;;;;1927470;74;21050;-78
2022/02/18 05:13:05;;;;;;;17.60;3.10;;;8.30;99.90;;;;;;1927414;74;21115;-77
2022/02/18 05:15:32;;;;;;;11.53;2.98;;;8.30;99.90;;;;;;1927456;74;21418;-77
2022/02/18 05:18:03;;;;;;;18.62;3.17;;;8.30;99.90;;;;;;1927504;74;21050;-78
2022/02/18 05:20:30;;;;;;;12.68;2.85;;;8.40;99.90;;;;;;1927397;74;21015;-78
2022/02/18 05:22:58;;;;;;;15.18;3.47;;;8.30;99.90;;;;;;1927570;74;21115;-78
2022/02/18 05:25:31;;;;;;;13.00;2.95;;;8.30;99.90;;;;;;1927532;74;21422;-79
2022/02/18 05:28:07;;;;;;;18.60;3.47;;;8.40;99.90;;;;;;1927402;73;21102;-78
2022/02/18 05:30:31;;;;;;;15.40;3.65;;;8.50;99.90;;;;;;1926799;74;21552;-78
2022/02/18 05:32:58;;;;;;;14.20;3.12;;;8.60;99.90;;;;;;1927340;74;21019;-78
2022/02/18 05:35:26;;;;;;;14.25;3.20;;;8.60;99.90;;;;;;1927441;74;21492;-78
2022/02/18 05:37:53;;;;;;;12.05;2.90;;;8.40;99.90;;;;;;1927488;74;21042;-78
2022/02/18 05:40:20;;;;;;;11.38;2.92;;;8.40;99.90;;;;;;1927447;74;21426;-78
2022/02/18 05:42:47;;;;;;;11.08;3.30;;;8.40;99.90;;;;;;1927489;74;21046;-75
2022/02/18 05:45:15;;;;;;;10.72;3.27;;;8.30;99.90;;;;;;1927471;74;21034;-77
2022/02/18 05:47:42;;;;;;;17.62;3.95;;;8.30;99.90;;;;;;1927665;74;21062;-79
2022/02/18 05:50:14;;;;;;;15.90;3.25;;;8.30;99.90;;;;;;1927675;74;21108;-78
2022/02/18 05:52:40;;;;;;;16.12;4.05;;;8.30;99.90;;;;;;1927028;74;21139;-79
2022/02/18 05:55:07;;;;;;;11.63;3.22;;;8.20;99.90;;;;;;1927564;74;21486;-79
2022/02/18 05:57:35;;;;;;;15.35;3.05;;;8.20;99.90;;;;;;1927493;74;21140;-79
2022/02/18 06:00:07;;;;;;;15.08;3.40;;;8.30;99.90;;;;;;1927549;74;21054;-79
2022/02/18 06:02:33;;;;;;;15.93;3.60;;;8.30;99.90;;;;;;1927782;73;21085;-79
2022/02/18 06:05:01;;;;;;;15.78;3.30;;;8.40;99.90;;;;;;1927559;74;21015;-79
2022/02/18 06:07:29;;;;;;;16.15;3.30;;;8.40;99.90;;;;;;1927504;74;21427;-77
2022/02/18 06:09:56;;;;;;;10.28;3.15;;;8.40;99.90;;;;;;1927344;74;21507;-77
2022/02/18 06:12:23;;;;;;;14.63;3.77;;;8.40;99.90;;;;;;1927567;74;21042;-80
2022/02/18 06:14:51;;;;;;;17.45;3.65;;;8.40;99.90;;;;;;1927619;74;21042;-79
2022/02/18 06:17:18;;;;;;;15.05;3.17;;;8.40;99.90;;;;;;1927366;74;21054;-77
2022/02/18 06:19:46;;;;;;;18.75;3.50;;;8.40;99.90;;;;;;1927696;74;21015;-79
2022/02/18 06:22:14;;;;;;;22.70;4.17;;;8.50;99.90;;;;;;1927570;74;21038;-79
2022/02/18 06:24:42;;;;;;;21.33;2.83;;;8.60;99.90;;;;;;1927466;74;21152;-79
2022/02/18 06:27:09;;;;;;;11.57;2.83;;;8.70;99.90;;;;;;1927533;74;21108;-77
2022/02/18 06:29:37;;;;;;;10.25;3.12;;;8.70;99.90;;;;;;1927359;74;21101;-77
2022/02/18 06:32:07;;;;;;;15.53;3.47;;;8.70;99.90;;;;;;1927205;74;21111;-78
2022/02/18 06:34:33;;;;;;;8.50;2.67;;;8.70;99.90;;;;;;1926870;74;21237;-80
2022/02/18 06:37:01;;;;;;;20.92;3.58;;;8.80;99.90;;;;;;1927418;74;21041;-81
2022/02/18 06:39:28;;;;;;;15.18;3.25;;;8.80;99.90;;;;;;1927422;74;21048;-81
2022/02/18 06:41:55;;;;;;;16.00;3.47;;;8.90;99.90;;;;;;1927411;74;21111;-80
2022/02/18 06:44:22;;;;;;;31.77;10.63;;;8.90;99.90;;;;;;1927348;74;21511;-81
2022/02/18 06:46:50;;;;;;;24.85;8.20;;;8.90;99.90;;;;;;1927418;74;21046;-82
2022/02/18 06:49:17;;;;;;;23.57;6.42;;;8.90;99.90;;;;;;1927636;74;21498;-83
2022/02/18 06:51:44;;;;;;;25.68;5.45;;;8.80;99.90;;;;;;1927546;74;21042;-80
2022/02/18 06:54:12;;;;;;;19.55;6.85;;;8.70;99.90;;;;;;1927418;74;21023;-80
2022/02/18 06:56:39;;;;;;;29.72;6.72;;;8.80;99.90;;;;;;1927563;74;21476;-81
2022/02/18 06:59:06;;;;;;;17.32;5.80;;;8.70;99.90;;;;;;1927448;74;21073;-82
2022/02/18 07:01:34;;;;;;;28.42;5.28;;;8.70;99.90;;;;;;1927506;74;21104;-83
2022/02/18 07:04:01;;;;;;;20.95;5.10;;;8.80;99.90;;;;;;1927625;74;21496;-81
2022/02/18 07:06:28;;;;;;;29.35;5.08;;;8.80;99.90;;;;;;1927486;74;21007;-80
2022/02/18 07:08:56;;;;;;;20.88;5.00;;;9.00;99.90;;;;;;1927406;74;21034;-84
2022/02/18 07:11:23;;;;;;;26.77;5.28;;;8.90;99.90;;;;;;1927633;74;21042;-84
2022/02/18 07:13:50;;;;;;;22.27;5.30;;;8.80;99.90;;;;;;1927505;74;21043;-82
2022/02/18 07:16:17;;;;;;;22.77;4.42;;;8.80;99.90;;;;;;1927644;74;21015;-78
2022/02/18 07:18:45;;;;;;;22.22;5.22;;;8.80;99.90;;;;;;1927404;74;21051;-80
2022/02/18 07:21:12;;;;;;;32.15;5.28;;;8.90;99.90;;;;;;1927523;74;21104;-82
2022/02/18 07:23:40;;;;;;;18.98;4.53;;;8.80;99.90;;;;;;1927362;74;21050;-80
2022/02/18 07:26:09;;;;;;;19.92;5.22;;;8.90;99.90;;;;;;1927312;74;21062;-80
2022/02/18 07:28:39;;;;;;;16.15;4.70;;;8.80;99.90;;;;;;1927357;74;21467;-82
2022/02/18 07:31:08;;;;;;;21.95;4.75;;;8.90;99.90;;;;;;1927439;73;21244;-81
2022/02/18 07:33:36;;;;;;;17.42;5.08;;;8.90;99.90;;;;;;1927559;74;21490;-81
2022/02/18 07:36:04;;;;;;;25.43;4.90;;;9.00;99.90;;;;;;1927503;74;21135;-85
2022/02/18 07:38:32;;;;;;;20.97;4.85;;;9.10;99.90;;;;;;1927750;74;21014;-85
2022/02/18 07:40:59;;;;;;;18.40;4.70;;;9.10;99.90;;;;;;1928938;72;21045;-85
2022/02/18 07:43:26;;;;;;;27.95;5.10;;;9.10;99.90;;;;;;1928228;74;21042;-86
2022/02/18 07:45:56;;;;;;;38.98;5.87;;;9.10;99.90;;;;;;1927444;74;21104;-83
2022/02/18 07:48:22;;;;;;;22.15;5.30;;;9.10;99.90;;;;;;1927694;73;21083;-86
2022/02/18 07:50:50;;;;;;;33.80;5.83;;;9.00;99.90;;;;;;1928975;74;21116;-83
2022/02/18 07:53:17;;;;;;;22.05;5.60;;;9.10;99.90;;;;;;1928667;74;21096;-84
2022/02/18 07:55:44;;;;;;;17.07;4.30;;;9.10;99.90;;;;;;1928282;74;21130;-85
2022/02/18 07:58:12;;;;;;;19.90;4.50;;;9.10;99.90;;;;;;1928476;74;21107;-85
2022/02/18 08:00:39;;;;;;;30.32;4.87;;;9.10;99.90;;;;;;1928283;74;21200;-85
2022/02/18 08:03:07;;;;;;;15.40;4.37;;;9.10;99.90;;;;;;1928835;74;22008;-79
2022/02/18 08:05:35;;;;;;;25.25;5.15;;;9.10;99.90;;;;;;1928239;74;21152;-83
2022/02/18 08:08:03;;;;;;;14.98;3.75;;;9.20;99.90;;;;;;1928158;74;21119;-82
2022/02/18 08:10:30;;;;;;;19.05;3.55;;;9.20;99.90;;;;;;1928168;74;21105;-84
2022/02/18 08:12:57;;;;;;;28.05;5.17;;;9.30;99.90;;;;;;1928393;74;21061;-84
2022/02/18 08:15:25;;;;;;;17.20;4.75;;;9.40;99.90;;;;;;1928608;74;21112;-84
2022/02/18 08:17:52;;;;;;;30.50;4.70;;;9.50;99.90;;;;;;1928619;74;21124;-84
2022/02/18 08:20:19;;;;;;;19.23;4.80;;;9.50;99.90;;;;;;1928641;74;21038;-84
2022/02/18 08:22:46;;;;;;;19.48;4.35;;;9.50;99.90;;;;;;1928334;74;21514;-85
2022/02/18 08:25:14;;;;;;;14.75;4.10;;;9.70;99.90;;;;;;1928565;74;21034;-85
2022/02/18 08:27:43;;;;;;;14.33;3.70;;;9.70;99.90;;;;;;1890615;74;21477;-85
2022/02/18 08:30:12;;;;;;;16.87;3.72;;;9.90;99.90;;;;;;1927698;74;21042;-85
2022/02/18 08:32:39;;;;;;;13.35;3.25;;;9.90;99.90;;;;;;1927679;74;21535;-85
2022/02/18 08:35:07;;;;;;;18.75;4.17;;;10.10;99.90;;;;;;1927480;74;21046;-83
2022/02/18 08:37:34;;;;;;;14.98;3.67;;;10.10;99.90;;;;;;1927466;74;21388;-80
2022/02/18 08:40:02;;;;;;;21.37;4.45;;;10.20;99.90;;;;;;1889750;74;21042;-80
2022/02/18 08:42:29;;;;;;;19.32;4.12;;;10.20;99.90;;;;;;1927586;74;21041;-82
2022/02/18 08:44:56;;;;;;;19.65;4.62;;;10.30;99.90;;;;;;1927578;74;21042;-80
2022/02/18 08:47:24;;;;;;;16.87;4.12;;;10.30;99.90;;;;;;1927479;74;21038;-80
2022/02/18 08:49:51;;;;;;;15.53;4.37;;;10.40;99.90;;;;;;1927685;74;21184;-80
2022/02/18 08:52:18;;;;;;;14.90;3.98;;;10.50;99.90;;;;;;1927448;74;21007;-78
2022/02/18 08:54:45;;;;;;;17.82;4.05;;;10.70;99.90;;;;;;1927493;74;21049;-79
2022/02/18 08:57:13;;;;;;;13.43;4.17;;;10.90;99.90;;;;;;1927419;74;21203;-79
2022/02/18 08:59:41;;;;;;;10.03;3.20;;;11.00;99.90;;;;;;1927465;74;21046;-79
2022/02/18 09:02:10;;;;;;;9.93;3.12;;;11.20;99.90;;;;;;1927914;73;21513;-78
2022/02/18 09:04:37;;;;;;;14.15;3.37;;;11.30;99.90;;;;;;1927675;74;21492;-78
2022/02/18 09:07:04;;;;;;;9.05;2.55;;;11.40;99.90;;;;;;1927472;74;21115;-76
2022/02/18 09:09:33;;;;;;;7.97;2.40;;;11.60;99.90;;;;;;1927577;74;21193;-76
2022/02/18 09:12:00;;;;;;;15.18;2.60;;;11.70;99.90;;;;;;1927492;74;21445;-78
2022/02/18 09:14:29;;;;;;;12.40;2.40;;;11.90;99.90;;;;;;1927475;74;21093;-76
2022/02/18 09:16:57;;;;;;;9.95;2.60;;;12.10;99.90;;;;;;1927462;74;21054;-76
2022/02/18 09:19:25;;;;;;;16.82;2.37;;;12.20;99.90;;;;;;1927424;74;21046;-78
2022/02/18 09:21:53;;;;;;;5.90;1.82;;;12.30;99.90;;;;;;1927312;74;21082;-79
2022/02/18 09:24:20;;;;;;;8.25;2.12;;;12.30;99.90;;;;;;1927320;74;21107;-78
2022/02/18 09:26:47;;;;;;;8.85;1.92;;;12.40;99.90;;;;;;1927460;74;21159;-80
2022/02/18 09:29:16;;;;;;;4.37;1.57;;;12.50;99.90;;;;;;1927402;74;21524;-79
2022/02/18 09:31:44;;;;;;;9.85;2.10;;;12.60;99.90;;;;;;1927326;74;21089;-79
2022/02/18 09:34:12;;;;;;;5.25;1.77;;;12.80;99.90;;;;;;1927258;74;21174;-80
2022/02/18 09:36:39;;;;;;;3.90;1.50;;;12.90;99.90;;;;;;1927404;74;21145;-80
2022/02/18 09:39:07;;;;;;;4.42;1.40;;;13.10;99.90;;;;;;1927333;74;21015;-80
2022/02/18 09:41:37;;;;;;;5.95;1.42;;;13.20;99.90;;;;;;1927421;74;21069;-79
2022/02/18 09:44:05;;;;;;;4.70;1.50;;;13.30;99.90;;;;;;1927597;74;21131;-80
2022/02/18 09:46:32;;;;;;;6.08;1.70;;;13.20;99.90;;;;;;1927516;74;21103;-79
2022/02/18 09:48:59;;;;;;;3.77;1.17;;;13.50;99.90;;;;;;1927365;74;21015;-79
2022/02/18 09:51:27;;;;;;;1.60;0.72;;;13.60;99.90;;;;;;1927679;74;21069;-75
2022/02/18 09:53:58;;;;;;;4.70;1.20;;;13.60;99.90;;;;;;1928283;74;21074;-78
2022/02/18 09:56:25;;;;;;;2.52;0.85;;;13.60;99.90;;;;;;1927766;73;21074;-79
2022/02/18 09:58:53;;;;;;;1.32;0.80;;;13.80;99.90;;;;;;1925984;74;21517;-78
2022/02/18 10:01:22;;;;;;;5.30;0.80;;;13.90;99.90;;;;;;1927637;74;21014;-79
2022/02/18 10:03:50;;;;;;;2.75;0.82;;;13.90;99.90;;;;;;1927910;74;21038;-81
2022/02/18 10:06:17;;;;;;;1.62;0.85;;;14.00;99.90;;;;;;1927927;74;21081;-79
2022/02/18 10:08:53;;;;;;;3.85;1.00;;;14.00;99.90;;;;;;1930453;74;21007;-79
2022/02/18 10:11:20;;;;;;;9.53;0.78;;;14.00;99.90;;;;;;1929483;74;21042;-78
2022/02/18 10:13:48;;;;;;;3.20;1.02;;;14.10;99.90;;;;;;1929656;74;21136;-78
2022/02/18 10:16:23;;;;;;;4.45;0.80;;;14.20;99.90;;;;;;1928977;74;21411;-80
2022/02/18 10:18:56;;;;;;;2.62;0.95;;;14.40;99.90;;;;;;1929208;74;21030;-79
2022/02/18 10:21:29;;;;;;;2.87;0.80;;;14.50;99.90;;;;;;1890042;74;21050;-78
2022/02/18 10:24:12;;;;;;;1.72;0.70;;;14.70;99.90;;;;;;1928005;74;21097;-77
2022/02/18 10:26:43;;;;;;;1.47;0.60;;;14.80;99.90;;;;;;1928575;73;21118;-79
2022/02/18 10:29:19;;;;;;;3.02;1.07;;;15.00;99.90;;;;;;1928655;74;21104;-78
2022/02/18 10:31:50;;;;;;;1.25;0.60;;;14.90;99.90;;;;;;1928391;74;21077;-77
2022/02/18 10:34:21;;;;;;;2.05;0.80;;;15.10;99.90;;;;;;1898054;74;21054;-77
2022/02/18 10:36:48;;;;;;;2.20;0.90;;;15.20;99.90;;;;;;1931091;73;21314;-82
2022/02/18 10:39:29;;;;;;;0.80;0.55;;;15.20;99.90;;;;;;1931047;72;21100;-79
2022/02/18 10:42:01;;;;;;;1.98;0.72;;;15.00;99.90;;;;;;1890280;74;21030;-80
2022/02/18 10:44:35;;;;;;;1.42;0.90;;;14.90;99.90;;;;;;1927692;74;21066;-80
2022/02/18 10:47:06;;;;;;;4.12;0.78;;;14.90;99.90;;;;;;1928086;74;21045;-79
2022/02/18 10:49:39;;;;;;;1.60;0.80;;;14.70;99.90;;;;;;1927405;74;21096;-81
2022/02/18 10:52:17;;;;;;;2.65;1.00;;;14.80;99.90;;;;;;1926796;73;21073;-80
2022/02/18 10:54:50;;;;;;;;;;;14.90;99.90;;;;;;1930458;74;21132;-80
2022/02/18 10:57:24;;;;;;;3.20;1.00;;;15.00;99.90;;;;;;1927633;73;20140;-81
2022/02/18 10:59:54;;;;;;;3.40;0.80;;;15.20;99.90;;;;;;1927511;74;21139;-82
2022/02/18 11:02:40;;;;;;;0.75;0.68;;;15.40;99.90;;;;;;1927831;74;21565;-83
2022/02/18 11:05:21;;;;;;;5.25;0.80;;;15.50;99.90;;;;;;1927553;74;21533;-84
2022/02/18 11:07:49;;;;;;;7.60;1.07;;;15.70;99.90;;;;;;1927487;74;21116;-85
2022/02/18 11:10:37;;;;;;;4.80;1.52;;;15.90;99.90;;;;;;1927510;74;21434;-83
2022/02/18 11:13:05;;;;;;;3.27;1.15;;;15.80;99.90;;;;;;1927549;74;21127;-82
2022/02/18 11:15:36;;;;;;;1.40;0.50;;;16.10;99.90;;;;;;1928093;74;21193;-85
2022/02/18 11:18:03;;;;;;;2.58;0.90;;;16.50;99.90;;;;;;1928793;74;21107;-83
2022/02/18 11:20:31;;;;;;;8.48;0.88;;;16.80;99.90;;;;;;1931336;72;21026;-82
2022/02/18 11:22:58;;;;;;;1.20;0.57;;;16.80;99.90;;;;;;1930796;74;21085;-81
2022/02/18 11:25:26;;;;;;;5.58;1.42;;;16.90;99.90;;;;;;1927907;74;21015;-81
2022/02/18 11:27:53;;;;;;;3.50;0.88;;;16.90;99.90;;;;;;1928114;74;21046;-81
2022/02/18 11:30:22;;;;;;;2.87;0.80;;;17.10;99.90;;;;;;1928366;74;21017;-84
2022/02/18 11:32:59;;;;;;;4.72;0.95;;;17.60;99.90;;;;;;1890586;74;21046;-80
2022/02/18 11:35:35;;;;;;;3.15;0.60;;;17.40;99.90;;;;;;1926345;74;21111;-81
2022/02/18 11:38:38;;;;;;;3.77;0.80;;;17.20;99.90;;;;;;1928382;74;21041;-81
2022/02/18 11:41:24;;;;;;;4.22;0.72;;;17.00;99.90;;;;;;1928185;74;21054;-82
2022/02/18 11:43:52;;;;;;;2.90;0.93;;;16.70;99.90;;;;;;1927965;74;21434;-80
2022/02/18 11:46:25;;;;;;;2.90;0.70;;;16.90;99.90;;;;;;1928249;74;21128;-77
2022/02/18 11:49:03;;;;;;;2.92;1.00;;;16.90;99.90;;;;;;1927895;73;21140;-80
2022/02/18 11:51:33;;;;;;;5.28;0.90;;;17.00;99.90;;;;;;1927196;74;21223;-83
2022/02/18 11:54:04;;;;;;;1.98;0.72;;;17.00;99.90;;;;;;1923076;74;21038;-81
2022/02/18 11:56:53;;;;;;;5.03;0.90;;;17.10;99.90;;;;;;1928360;74;21176;-80
2022/02/18 11:59:19;;;;;;;2.12;0.50;;;17.20;99.90;;;;;;1926392;74;21079;-82
2022/02/18 12:01:52;;;;;;;4.80;0.70;;;17.20;99.90;;;;;;1928012;74;21015;-81
2022/02/18 12:04:22;;;;;;;2.55;0.80;;;17.50;99.90;;;;;;1927822;74;21046;-82
2022/02/18 12:07:15;;;;;;;6.83;0.53;;;17.30;99.90;;;;;;1927880;74;21065;-77
2022/02/18 12:09:53;;;;;;;1.50;0.82;;;17.20;99.90;;;;;;1927762;74;21050;-77
2022/02/18 12:12:33;;;;;;;2.58;0.88;;;17.20;99.90;;;;;;1928020;74;21143;-75
2022/02/18 12:15:09;;;;;;;4.83;0.88;;;17.70;99.90;;;;;;1927822;74;21394;-77
2022/02/18 12:17:38;;;;;;;5.17;0.70;;;18.30;99.90;;;;;;1927812;73;21453;-74
2022/02/18 12:20:11;;;;;;;1.85;0.70;;;18.20;99.90;;;;;;1927824;74;21123;-76
2022/02/18 12:22:40;;;;;;;11.08;0.70;;;17.90;99.90;;;;;;1919636;74;21195;-77
2022/02/18 12:25:09;;;;;;;4.60;0.80;;;17.80;99.90;;;;;;1927542;74;21081;-78
2022/02/18 12:27:38;;;;;;;1.72;0.65;;;17.50;99.90;;;;;;1927738;74;21123;-76
2022/02/18 12:30:27;;;;;;;1.65;0.45;;;17.50;99.90;;;;;;1927579;74;21070;-76
2022/02/18 12:32:57;;;;;;;2.10;0.70;;;17.30;99.90;;;;;;1927870;74;21096;-77
2022/02/18 12:35:27;;;;;;;3.55;0.90;;;17.30;99.90;;;;;;1927883;73;21189;-80
2022/02/18 12:38:15;;;;;;;3.25;0.70;;;17.40;99.90;;;;;;1890631;74;21070;-78
2022/02/18 12:40:43;;;;;;;1.50;0.50;;;17.40;99.90;;;;;;1862243;77;21434;-80
2022/02/18 12:43:16;;;;;;;3.20;0.70;;;17.50;99.90;;;;;;1862447;77;21056;-79
2022/02/18 12:45:49;;;;;;;6.80;0.98;;;17.50;99.90;;;;;;1862281;77;21462;-81
2022/02/18 12:48:23;;;;;;;4.78;0.80;;;17.70;99.90;;;;;;1862512;77;21145;-76
2022/02/18 12:50:50;;;;;;;4.22;0.80;;;17.90;99.90;;;;;;1857783;76;21037;-84
2022/02/18 12:53:22;;;;;;;1.42;0.70;;;17.60;99.90;;;;;;1862421;77;21510;-79